sensor_id;sensor_type;location;lat;lon;timestamp;P1;durP1;ratioP1;P2;durP2;ratioP2
32505;SDS011;18955;51.224;8.482;2022-07-30T00:01:00;4.07;;;3.33;;
32505;SDS011;18955;51.224;8.482;2022-07-30T00:03:26;5.18;;;2.88;;
32505;SDS011;18955;51.224;8.482;2022-07-30T00:05:52;3.60;;;2.90;;
32505;SDS011;18955;51.224;8.482;2022-07-30T00:10:46;7.88;;;4.22;;
32505;SDS011;18955;51.224;8.482;2022-07-30T00:13:12;4.70;;;4.28;;
32505;SDS011;18955;51.224;8.482;2022-07-30T00:15:38;6.78;;;4.40;;
32505;SDS011;18955;51.224;8.482;2022-07-30T00:18:04;3.83;;;3.38;;
32505;SDS011;18955;51.224;8.482;2022-07-30T00:20:31;4.03;;;3.63;;
32505;SDS011;18955;51.224;8.482;2022-07-30T00:22:57;5.95;;;4.10;;
32505;SDS011;18955;51.224;8.482;2022-07-30T00:25:26;6.95;;;3.42;;
32505;SDS011;18955;51.224;8.482;2022-07-30T00:27:53;2.70;;;2.50;;
32505;SDS011;18955;51.224;8.482;2022-07-30T00:30:19;3.72;;;2.10;;
32505;SDS011;18955;51.224;8.482;2022-07-30T00:35:12;5.45;;;3.35;;
32505;SDS011;18955;51.224;8.482;2022-07-30T00:37:39;8.18;;;4.00;;
32505;SDS011;18955;51.224;8.482;2022-07-30T00:40:06;6.30;;;3.42;;
32505;SDS011;18955;51.224;8.482;2022-07-30T00:42:37;8.98;;;3.60;;
32505;SDS011;18955;51.224;8.482;2022-07-30T00:45:12;3.30;;;2.78;;
32505;SDS011;18955;51.224;8.482;2022-07-30T00:47:39;6.38;;;4.10;;
32505;SDS011;18955;51.224;8.482;2022-07-30T00:50:08;5.43;;;4.05;;
32505;SDS011;18955;51.224;8.482;2022-07-30T00:52:36;8.30;;;4.13;;
32505;SDS011;18955;51.224;8.482;2022-07-30T00:55:03;5.00;;;3.42;;
32505;SDS011;18955;51.224;8.482;2022-07-30T00:57:31;8.20;;;3.88;;
32505;SDS011;18955;51.224;8.482;2022-07-30T00:59:57;8.50;;;4.10;;
32505;SDS011;18955;51.224;8.482;2022-07-30T01:02:23;5.30;;;3.75;;
32505;SDS011;18955;51.224;8.482;2022-07-30T01:04:50;3.78;;;3.05;;
32505;SDS011;18955;51.224;8.482;2022-07-30T01:07:16;4.72;;;3.45;;
32505;SDS011;18955;51.224;8.482;2022-07-30T01:09:42;6.20;;;4.43;;
32505;SDS011;18955;51.224;8.482;2022-07-30T01:12:08;3.67;;;3.38;;
32505;SDS011;18955;51.224;8.482;2022-07-30T01:14:37;3.85;;;2.92;;
32505;SDS011;18955;51.224;8.482;2022-07-30T01:17:04;4.53;;;2.63;;
32505;SDS011;18955;51.224;8.482;2022-07-30T01:19:35;6.65;;;3.33;;
32505;SDS011;18955;51.224;8.482;2022-07-30T01:27:26;3.97;;;3.38;;
32505;SDS011;18955;51.224;8.482;2022-07-30T01:30:16;7.22;;;4.00;;
32505;SDS011;18955;51.224;8.482;2022-07-30T01:32:44;11.80;;;4.15;;
32505;SDS011;18955;51.224;8.482;2022-07-30T01:35:12;4.00;;;3.58;;
32505;SDS011;18955;51.224;8.482;2022-07-30T01:37:39;3.33;;;2.92;;
32505;SDS011;18955;51.224;8.482;2022-07-30T01:40:09;4.93;;;3.60;;
32505;SDS011;18955;51.224;8.482;2022-07-30T01:42:37;7.15;;;4.00;;
32505;SDS011;18955;51.224;8.482;2022-07-30T01:45:06;5.03;;;3.45;;
32505;SDS011;18955;51.224;8.482;2022-07-30T01:47:34;5.82;;;4.20;;
32505;SDS011;18955;51.224;8.482;2022-07-30T01:50:03;3.80;;;3.40;;
32505;SDS011;18955;51.224;8.482;2022-07-30T01:52:33;3.92;;;2.75;;
32505;SDS011;18955;51.224;8.482;2022-07-30T01:55:02;3.47;;;3.10;;
32505;SDS011;18955;51.224;8.482;2022-07-30T01:57:29;5.03;;;3.42;;
32505;SDS011;18955;51.224;8.482;2022-07-30T02:00:00;10.15;;;3.92;;
32505;SDS011;18955;51.224;8.482;2022-07-30T02:02:42;6.20;;;3.38;;
32505;SDS011;18955;51.224;8.482;2022-07-30T02:05:09;4.05;;;2.92;;
32505;SDS011;18955;51.224;8.482;2022-07-30T02:10:27;3.92;;;3.08;;
32505;SDS011;18955;51.224;8.482;2022-07-30T02:12:58;11.05;;;3.60;;
32505;SDS011;18955;51.224;8.482;2022-07-30T02:15:28;6.00;;;3.42;;
32505;SDS011;18955;51.224;8.482;2022-07-30T02:20:34;8.32;;;3.30;;
32505;SDS011;18955;51.224;8.482;2022-07-30T02:25:31;8.02;;;3.33;;
32505;SDS011;18955;51.224;8.482;2022-07-30T02:28:01;4.82;;;3.30;;
32505;SDS011;18955;51.224;8.482;2022-07-30T02:30:31;9.90;;;3.80;;
32505;SDS011;18955;51.224;8.482;2022-07-30T02:33:04;5.40;;;3.60;;
32505;SDS011;18955;51.224;8.482;2022-07-30T02:35:33;4.20;;;3.63;;
32505;SDS011;18955;51.224;8.482;2022-07-30T02:38:01;4.60;;;3.72;;
32505;SDS011;18955;51.224;8.482;2022-07-30T02:40:29;4.05;;;3.60;;
32505;SDS011;18955;51.224;8.482;2022-07-30T02:42:57;4.72;;;3.20;;
32505;SDS011;18955;51.224;8.482;2022-07-30T02:45:26;6.00;;;3.70;;
32505;SDS011;18955;51.224;8.482;2022-07-30T02:47:56;5.97;;;3.80;;
32505;SDS011;18955;51.224;8.482;2022-07-30T02:50:26;8.13;;;3.38;;
32505;SDS011;18955;51.224;8.482;2022-07-30T02:52:53;5.07;;;3.25;;
32505;SDS011;18955;51.224;8.482;2022-07-30T02:55:22;6.57;;;2.47;;
32505;SDS011;18955;51.224;8.482;2022-07-30T02:57:51;4.75;;;3.65;;
32505;SDS011;18955;51.224;8.482;2022-07-30T03:00:19;4.05;;;3.33;;
32505;SDS011;18955;51.224;8.482;2022-07-30T03:02:49;3.95;;;3.25;;
32505;SDS011;18955;51.224;8.482;2022-07-30T03:05:17;4.60;;;2.75;;
32505;SDS011;18955;51.224;8.482;2022-07-30T03:07:44;4.20;;;3.47;;
32505;SDS011;18955;51.224;8.482;2022-07-30T03:10:12;4.55;;;3.35;;
32505;SDS011;18955;51.224;8.482;2022-07-30T03:12:41;6.15;;;3.50;;
32505;SDS011;18955;51.224;8.482;2022-07-30T03:15:11;8.80;;;3.55;;
32505;SDS011;18955;51.224;8.482;2022-07-30T03:17:41;3.63;;;3.30;;
32505;SDS011;18955;51.224;8.482;2022-07-30T03:20:10;4.03;;;3.15;;
32505;SDS011;18955;51.224;8.482;2022-07-30T03:22:40;7.43;;;3.35;;
32505;SDS011;18955;51.224;8.482;2022-07-30T03:25:08;4.45;;;3.25;;
32505;SDS011;18955;51.224;8.482;2022-07-30T03:27:37;5.30;;;3.60;;
32505;SDS011;18955;51.224;8.482;2022-07-30T03:30:05;9.60;;;4.25;;
32505;SDS011;18955;51.224;8.482;2022-07-30T03:32:33;6.38;;;3.47;;
32505;SDS011;18955;51.224;8.482;2022-07-30T03:35:02;8.05;;;3.80;;
32505;SDS011;18955;51.224;8.482;2022-07-30T03:37:29;4.95;;;3.72;;
32505;SDS011;18955;51.224;8.482;2022-07-30T03:39:57;3.28;;;3.03;;
32505;SDS011;18955;51.224;8.482;2022-07-30T03:42:25;3.90;;;3.53;;
32505;SDS011;18955;51.224;8.482;2022-07-30T03:44:52;6.15;;;3.90;;
32505;SDS011;18955;51.224;8.482;2022-07-30T03:47:21;5.30;;;3.97;;
32505;SDS011;18955;51.224;8.482;2022-07-30T03:52:15;6.47;;;3.75;;
32505;SDS011;18955;51.224;8.482;2022-07-30T03:54:45;5.80;;;4.15;;
32505;SDS011;18955;51.224;8.482;2022-07-30T03:57:50;6.00;;;4.15;;
32505;SDS011;18955;51.224;8.482;2022-07-30T04:00:22;5.63;;;4.20;;
32505;SDS011;18955;51.224;8.482;2022-07-30T04:02:51;6.20;;;3.42;;
32505;SDS011;18955;51.224;8.482;2022-07-30T04:05:26;4.38;;;3.55;;
32505;SDS011;18955;51.224;8.482;2022-07-30T04:07:56;4.78;;;4.00;;
32505;SDS011;18955;51.224;8.482;2022-07-30T04:10:24;5.88;;;4.38;;
32505;SDS011;18955;51.224;8.482;2022-07-30T04:12:56;6.32;;;3.67;;
32505;SDS011;18955;51.224;8.482;2022-07-30T04:15:22;5.93;;;4.18;;
32505;SDS011;18955;51.224;8.482;2022-07-30T04:17:51;5.03;;;4.53;;
32505;SDS011;18955;51.224;8.482;2022-07-30T04:20:23;5.88;;;4.50;;
32505;SDS011;18955;51.224;8.482;2022-07-30T04:22:54;6.88;;;4.20;;
32505;SDS011;18955;51.224;8.482;2022-07-30T04:25:23;8.85;;;4.55;;
32505;SDS011;18955;51.224;8.482;2022-07-30T04:27:50;6.55;;;4.35;;
32505;SDS011;18955;51.224;8.482;2022-07-30T04:32:43;7.65;;;4.07;;
32505;SDS011;18955;51.224;8.482;2022-07-30T04:35:30;4.95;;;3.45;;
32505;SDS011;18955;51.224;8.482;2022-07-30T04:38:13;5.10;;;4.38;;
32505;SDS011;18955;51.224;8.482;2022-07-30T04:40:41;6.47;;;4.35;;
32505;SDS011;18955;51.224;8.482;2022-07-30T04:43:07;7.45;;;5.18;;
32505;SDS011;18955;51.224;8.482;2022-07-30T04:45:37;6.45;;;4.35;;
32505;SDS011;18955;51.224;8.482;2022-07-30T04:48:05;5.05;;;4.55;;
32505;SDS011;18955;51.224;8.482;2022-07-30T04:50:50;5.18;;;3.50;;
32505;SDS011;18955;51.224;8.482;2022-07-30T04:53:20;6.00;;;4.07;;
32505;SDS011;18955;51.224;8.482;2022-07-30T04:55:52;7.00;;;4.22;;
32505;SDS011;18955;51.224;8.482;2022-07-30T04:58:23;5.47;;;3.10;;
32505;SDS011;18955;51.224;8.482;2022-07-30T05:00:51;7.68;;;3.75;;
32505;SDS011;18955;51.224;8.482;2022-07-30T05:03:24;7.85;;;4.53;;
32505;SDS011;18955;51.224;8.482;2022-07-30T05:05:53;6.75;;;3.35;;
32505;SDS011;18955;51.224;8.482;2022-07-30T05:08:22;6.22;;;3.67;;
32505;SDS011;18955;51.224;8.482;2022-07-30T05:10:49;5.72;;;4.35;;
32505;SDS011;18955;51.224;8.482;2022-07-30T05:13:16;4.68;;;4.25;;
32505;SDS011;18955;51.224;8.482;2022-07-30T05:15:42;3.60;;;3.05;;
32505;SDS011;18955;51.224;8.482;2022-07-30T05:18:14;6.97;;;4.10;;
32505;SDS011;18955;51.224;8.482;2022-07-30T05:20:43;6.53;;;4.20;;
32505;SDS011;18955;51.224;8.482;2022-07-30T05:23:29;5.47;;;4.00;;
32505;SDS011;18955;51.224;8.482;2022-07-30T05:26:05;7.28;;;4.63;;
32505;SDS011;18955;51.224;8.482;2022-07-30T05:28:38;4.88;;;3.70;;
32505;SDS011;18955;51.224;8.482;2022-07-30T05:31:07;9.68;;;3.83;;
32505;SDS011;18955;51.224;8.482;2022-07-30T05:33:34;7.10;;;4.75;;
32505;SDS011;18955;51.224;8.482;2022-07-30T05:36:00;6.45;;;4.88;;
32505;SDS011;18955;51.224;8.482;2022-07-30T05:38:27;8.30;;;5.90;;
32505;SDS011;18955;51.224;8.482;2022-07-30T05:41:14;6.22;;;4.22;;
32505;SDS011;18955;51.224;8.482;2022-07-30T05:44:00;6.80;;;5.50;;
32505;SDS011;18955;51.224;8.482;2022-07-30T05:46:27;10.00;;;5.60;;
32505;SDS011;18955;51.224;8.482;2022-07-30T05:51:20;7.68;;;5.55;;
32505;SDS011;18955;51.224;8.482;2022-07-30T05:53:46;11.52;;;6.65;;
32505;SDS011;18955;51.224;8.482;2022-07-30T05:56:31;11.82;;;6.70;;
32505;SDS011;18955;51.224;8.482;2022-07-30T05:59:05;7.63;;;6.60;;
32505;SDS011;18955;51.224;8.482;2022-07-30T06:02:10;7.88;;;6.70;;
32505;SDS011;18955;51.224;8.482;2022-07-30T06:04:51;10.45;;;7.25;;
32505;SDS011;18955;51.224;8.482;2022-07-30T06:07:17;14.93;;;7.85;;
32505;SDS011;18955;51.224;8.482;2022-07-30T06:09:44;9.75;;;6.95;;
32505;SDS011;18955;51.224;8.482;2022-07-30T06:12:10;9.90;;;7.85;;
32505;SDS011;18955;51.224;8.482;2022-07-30T06:14:36;7.35;;;5.07;;
32505;SDS011;18955;51.224;8.482;2022-07-30T06:17:04;10.95;;;8.38;;
32505;SDS011;18955;51.224;8.482;2022-07-30T06:19:51;11.82;;;7.53;;
32505;SDS011;18955;51.224;8.482;2022-07-30T06:22:19;17.42;;;8.55;;
32505;SDS011;18955;51.224;8.482;2022-07-30T06:24:47;15.82;;;7.85;;
32505;SDS011;18955;51.224;8.482;2022-07-30T06:27:20;13.27;;;7.90;;
32505;SDS011;18955;51.224;8.482;2022-07-30T06:29:46;14.55;;;8.13;;
32505;SDS011;18955;51.224;8.482;2022-07-30T06:32:14;8.68;;;7.32;;
32505;SDS011;18955;51.224;8.482;2022-07-30T06:34:42;14.90;;;6.95;;
32505;SDS011;18955;51.224;8.482;2022-07-30T06:39:35;17.10;;;7.68;;
32505;SDS011;18955;51.224;8.482;2022-07-30T06:42:20;12.43;;;7.53;;
32505;SDS011;18955;51.224;8.482;2022-07-30T06:45:21;11.52;;;7.55;;
32505;SDS011;18955;51.224;8.482;2022-07-30T06:48:13;12.30;;;7.30;;
32505;SDS011;18955;51.224;8.482;2022-07-30T06:53:06;9.23;;;7.05;;
32505;SDS011;18955;51.224;8.482;2022-07-30T06:55:55;15.57;;;9.10;;
32505;SDS011;18955;51.224;8.482;2022-07-30T06:58:23;13.13;;;8.77;;
32505;SDS011;18955;51.224;8.482;2022-07-30T07:01:08;15.38;;;9.25;;
32505;SDS011;18955;51.224;8.482;2022-07-30T07:03:35;12.40;;;7.85;;
32505;SDS011;18955;51.224;8.482;2022-07-30T07:06:01;18.75;;;9.30;;
32505;SDS011;18955;51.224;8.482;2022-07-30T07:08:30;14.13;;;7.63;;
32505;SDS011;18955;51.224;8.482;2022-07-30T07:10:56;14.30;;;8.98;;
32505;SDS011;18955;51.224;8.482;2022-07-30T07:13:31;16.55;;;8.50;;
32505;SDS011;18955;51.224;8.482;2022-07-30T07:15:59;12.38;;;8.32;;
32505;SDS011;18955;51.224;8.482;2022-07-30T07:18:28;13.60;;;8.00;;
32505;SDS011;18955;51.224;8.482;2022-07-30T07:21:02;13.27;;;9.02;;
32505;SDS011;18955;51.224;8.482;2022-07-30T07:23:29;17.70;;;8.48;;
32505;SDS011;18955;51.224;8.482;2022-07-30T07:25:56;12.45;;;8.38;;
32505;SDS011;18955;51.224;8.482;2022-07-30T07:28:23;14.65;;;8.68;;
32505;SDS011;18955;51.224;8.482;2022-07-30T07:30:49;15.15;;;8.77;;
32505;SDS011;18955;51.224;8.482;2022-07-30T07:35:44;19.63;;;8.40;;
32505;SDS011;18955;51.224;8.482;2022-07-30T07:38:11;9.00;;;7.05;;
32505;SDS011;18955;51.224;8.482;2022-07-30T07:43:03;11.98;;;8.30;;
32505;SDS011;18955;51.224;8.482;2022-07-30T07:45:31;13.93;;;8.80;;
32505;SDS011;18955;51.224;8.482;2022-07-30T07:48:03;16.90;;;9.73;;
32505;SDS011;18955;51.224;8.482;2022-07-30T07:50:50;14.05;;;9.32;;
32505;SDS011;18955;51.224;8.482;2022-07-30T07:53:27;23.20;;;10.17;;
32505;SDS011;18955;51.224;8.482;2022-07-30T07:55:54;17.90;;;9.65;;
32505;SDS011;18955;51.224;8.482;2022-07-30T07:58:22;19.42;;;9.75;;
32505;SDS011;18955;51.224;8.482;2022-07-30T08:00:48;18.13;;;9.30;;
32505;SDS011;18955;51.224;8.482;2022-07-30T08:03:16;14.98;;;8.85;;
32505;SDS011;18955;51.224;8.482;2022-07-30T08:05:42;12.60;;;9.23;;
32505;SDS011;18955;51.224;8.482;2022-07-30T08:11:04;17.67;;;8.60;;
32505;SDS011;18955;51.224;8.482;2022-07-30T08:13:57;11.02;;;7.97;;
32505;SDS011;18955;51.224;8.482;2022-07-30T08:16:26;17.92;;;8.38;;
32505;SDS011;18955;51.224;8.482;2022-07-30T08:19:13;20.10;;;7.78;;
32505;SDS011;18955;51.224;8.482;2022-07-30T08:21:44;14.52;;;7.55;;
32505;SDS011;18955;51.224;8.482;2022-07-30T08:24:15;17.90;;;6.22;;
32505;SDS011;18955;51.224;8.482;2022-07-30T08:26:42;13.48;;;6.93;;
32505;SDS011;18955;51.224;8.482;2022-07-30T08:29:08;11.55;;;6.80;;
32505;SDS011;18955;51.224;8.482;2022-07-30T08:31:35;15.32;;;6.15;;
32505;SDS011;18955;51.224;8.482;2022-07-30T08:36:28;15.27;;;5.95;;
32505;SDS011;18955;51.224;8.482;2022-07-30T08:38:54;10.73;;;5.85;;
32505;SDS011;18955;51.224;8.482;2022-07-30T08:41:20;15.10;;;6.72;;
32505;SDS011;18955;51.224;8.482;2022-07-30T08:43:48;11.02;;;5.75;;
32505;SDS011;18955;51.224;8.482;2022-07-30T08:46:16;13.18;;;6.80;;
32505;SDS011;18955;51.224;8.482;2022-07-30T08:49:10;10.18;;;6.32;;
32505;SDS011;18955;51.224;8.482;2022-07-30T08:51:37;16.45;;;6.28;;
32505;SDS011;18955;51.224;8.482;2022-07-30T08:54:10;15.85;;;6.90;;
32505;SDS011;18955;51.224;8.482;2022-07-30T08:59:05;11.05;;;6.80;;
32505;SDS011;18955;51.224;8.482;2022-07-30T09:01:32;11.75;;;6.78;;
32505;SDS011;18955;51.224;8.482;2022-07-30T09:03:58;13.20;;;6.60;;
32505;SDS011;18955;51.224;8.482;2022-07-30T09:06:26;12.80;;;6.90;;
32505;SDS011;18955;51.224;8.482;2022-07-30T09:08:53;9.55;;;6.15;;
32505;SDS011;18955;51.224;8.482;2022-07-30T09:11:19;11.07;;;6.30;;
32505;SDS011;18955;51.224;8.482;2022-07-30T09:13:46;16.48;;;6.25;;
32505;SDS011;18955;51.224;8.482;2022-07-30T09:16:31;13.07;;;7.05;;
32505;SDS011;18955;51.224;8.482;2022-07-30T09:18:58;10.10;;;6.18;;
32505;SDS011;18955;51.224;8.482;2022-07-30T09:21:56;12.63;;;5.53;;
32505;SDS011;18955;51.224;8.482;2022-07-30T09:24:44;10.73;;;6.25;;
32505;SDS011;18955;51.224;8.482;2022-07-30T09:27:46;11.88;;;7.10;;
32505;SDS011;18955;51.224;8.482;2022-07-30T09:30:48;12.55;;;5.40;;
32505;SDS011;18955;51.224;8.482;2022-07-30T09:33:41;9.75;;;6.05;;
32505;SDS011;18955;51.224;8.482;2022-07-30T09:36:38;16.17;;;5.90;;
32505;SDS011;18955;51.224;8.482;2022-07-30T09:42:35;10.43;;;5.35;;
32505;SDS011;18955;51.224;8.482;2022-07-30T09:45:10;10.02;;;5.20;;
32505;SDS011;18955;51.224;8.482;2022-07-30T09:47:43;13.77;;;5.18;;
32505;SDS011;18955;51.224;8.482;2022-07-30T09:50:13;8.15;;;5.22;;
32505;SDS011;18955;51.224;8.482;2022-07-30T09:52:43;13.80;;;5.45;;
32505;SDS011;18955;51.224;8.482;2022-07-30T09:55:11;10.65;;;5.45;;
32505;SDS011;18955;51.224;8.482;2022-07-30T09:57:58;10.25;;;5.72;;
32505;SDS011;18955;51.224;8.482;2022-07-30T10:00:27;10.75;;;5.20;;
32505;SDS011;18955;51.224;8.482;2022-07-30T10:03:16;8.07;;;5.38;;
32505;SDS011;18955;51.224;8.482;2022-07-30T10:06:05;6.22;;;4.75;;
32505;SDS011;18955;51.224;8.482;2022-07-30T10:08:42;10.05;;;4.40;;
32505;SDS011;18955;51.224;8.482;2022-07-30T10:11:15;8.73;;;4.97;;
32505;SDS011;18955;51.224;8.482;2022-07-30T10:13:56;8.52;;;4.30;;
32505;SDS011;18955;51.224;8.482;2022-07-30T10:16:25;10.57;;;4.45;;
32505;SDS011;18955;51.224;8.482;2022-07-30T10:18:58;7.75;;;4.72;;
32505;SDS011;18955;51.224;8.482;2022-07-30T10:21:56;11.30;;;5.07;;
32505;SDS011;18955;51.224;8.482;2022-07-30T10:24:43;8.55;;;4.93;;
32505;SDS011;18955;51.224;8.482;2022-07-30T10:27:29;9.88;;;5.30;;
32505;SDS011;18955;51.224;8.482;2022-07-30T10:30:04;9.90;;;5.22;;
32505;SDS011;18955;51.224;8.482;2022-07-30T10:34:57;7.82;;;5.82;;
32505;SDS011;18955;51.224;8.482;2022-07-30T10:37:24;9.95;;;5.60;;
32505;SDS011;18955;51.224;8.482;2022-07-30T10:39:55;9.18;;;5.50;;
32505;SDS011;18955;51.224;8.482;2022-07-30T10:47:48;15.27;;;6.15;;
32505;SDS011;18955;51.224;8.482;2022-07-30T10:50:19;8.23;;;5.28;;
32505;SDS011;18955;51.224;8.482;2022-07-30T10:52:55;15.30;;;5.47;;
32505;SDS011;18955;51.224;8.482;2022-07-30T10:55:31;10.77;;;5.43;;
32505;SDS011;18955;51.224;8.482;2022-07-30T10:58:00;13.18;;;5.50;;
32505;SDS011;18955;51.224;8.482;2022-07-30T11:00:34;12.77;;;5.55;;
32505;SDS011;18955;51.224;8.482;2022-07-30T11:03:22;10.40;;;4.80;;
32505;SDS011;18955;51.224;8.482;2022-07-30T11:05:51;9.73;;;5.20;;
32505;SDS011;18955;51.224;8.482;2022-07-30T11:08:49;8.90;;;5.88;;
32505;SDS011;18955;51.224;8.482;2022-07-30T11:12:01;8.77;;;6.07;;
32505;SDS011;18955;51.224;8.482;2022-07-30T11:14:02;13.57;;;5.43;;
32505;SDS011;18955;51.224;8.482;2022-07-30T11:19:04;6.88;;;5.38;;
32505;SDS011;18955;51.224;8.482;2022-07-30T11:21:36;13.45;;;6.25;;
32505;SDS011;18955;51.224;8.482;2022-07-30T11:29:06;11.80;;;6.85;;
32505;SDS011;18955;51.224;8.482;2022-07-30T11:31:53;14.00;;;7.60;;
32505;SDS011;18955;51.224;8.482;2022-07-30T11:42:28;13.30;;;6.75;;
32505;SDS011;18955;51.224;8.482;2022-07-30T11:45:19;11.90;;;5.95;;
32505;SDS011;18955;51.224;8.482;2022-07-30T11:47:48;8.20;;;6.05;;
32505;SDS011;18955;51.224;8.482;2022-07-30T11:50:27;8.88;;;6.32;;
32505;SDS011;18955;51.224;8.482;2022-07-30T11:53:05;12.38;;;6.70;;
32505;SDS011;18955;51.224;8.482;2022-07-30T11:55:40;11.55;;;6.18;;
32505;SDS011;18955;51.224;8.482;2022-07-30T11:58:09;10.20;;;5.60;;
32505;SDS011;18955;51.224;8.482;2022-07-30T12:00:51;12.38;;;6.35;;
32505;SDS011;18955;51.224;8.482;2022-07-30T12:03:22;13.85;;;7.00;;
32505;SDS011;18955;51.224;8.482;2022-07-30T12:05:51;10.65;;;6.88;;
32505;SDS011;18955;51.224;8.482;2022-07-30T12:08:18;14.52;;;7.25;;
32505;SDS011;18955;51.224;8.482;2022-07-30T12:10:54;13.63;;;7.22;;
32505;SDS011;18955;51.224;8.482;2022-07-30T12:13:24;19.45;;;7.90;;
32505;SDS011;18955;51.224;8.482;2022-07-30T12:15:51;13.30;;;7.30;;
32505;SDS011;18955;51.224;8.482;2022-07-30T12:20:55;10.02;;;6.75;;
32505;SDS011;18955;51.224;8.482;2022-07-30T12:23:23;19.52;;;8.00;;
32505;SDS011;18955;51.224;8.482;2022-07-30T12:28:29;13.73;;;7.35;;
32505;SDS011;18955;51.224;8.482;2022-07-30T12:30:57;15.38;;;7.47;;
32505;SDS011;18955;51.224;8.482;2022-07-30T12:33:25;9.52;;;6.78;;
32505;SDS011;18955;51.224;8.482;2022-07-30T12:35:52;12.43;;;5.80;;
32505;SDS011;18955;51.224;8.482;2022-07-30T12:38:23;15.18;;;6.78;;
32505;SDS011;18955;51.224;8.482;2022-07-30T12:40:52;12.38;;;6.78;;
32505;SDS011;18955;51.224;8.482;2022-07-30T12:46:08;18.85;;;8.55;;
32505;SDS011;18955;51.224;8.482;2022-07-30T12:48:35;14.52;;;7.78;;
32505;SDS011;18955;51.224;8.482;2022-07-30T12:51:05;13.55;;;7.22;;
32505;SDS011;18955;51.224;8.482;2022-07-30T12:53:32;10.60;;;7.75;;
32505;SDS011;18955;51.224;8.482;2022-07-30T12:58:55;18.65;;;8.65;;
32505;SDS011;18955;51.224;8.482;2022-07-30T13:01:43;16.10;;;7.20;;
32505;SDS011;18955;51.224;8.482;2022-07-30T13:04:11;20.55;;;8.77;;
32505;SDS011;18955;51.224;8.482;2022-07-30T13:06:39;21.42;;;7.93;;
32505;SDS011;18955;51.224;8.482;2022-07-30T13:09:11;16.05;;;8.32;;
32505;SDS011;18955;51.224;8.482;2022-07-30T13:11:44;18.48;;;7.28;;
32505;SDS011;18955;51.224;8.482;2022-07-30T13:14:11;10.55;;;6.95;;
32505;SDS011;18955;51.224;8.482;2022-07-30T13:16:40;15.10;;;7.07;;
32505;SDS011;18955;51.224;8.482;2022-07-30T13:19:08;14.30;;;7.72;;
32505;SDS011;18955;51.224;8.482;2022-07-30T13:21:39;13.52;;;7.18;;
32505;SDS011;18955;51.224;8.482;2022-07-30T13:24:06;13.77;;;7.57;;
32505;SDS011;18955;51.224;8.482;2022-07-30T13:26:33;15.43;;;8.20;;
32505;SDS011;18955;51.224;8.482;2022-07-30T13:29:01;20.25;;;8.02;;
32505;SDS011;18955;51.224;8.482;2022-07-30T13:31:28;14.90;;;7.95;;
32505;SDS011;18955;51.224;8.482;2022-07-30T13:33:54;14.52;;;7.55;;
32505;SDS011;18955;51.224;8.482;2022-07-30T13:36:20;11.55;;;7.35;;
32505;SDS011;18955;51.224;8.482;2022-07-30T13:38:47;14.05;;;7.22;;
32505;SDS011;18955;51.224;8.482;2022-07-30T13:43:41;12.63;;;7.05;;
32505;SDS011;18955;51.224;8.482;2022-07-30T13:46:08;10.30;;;6.47;;
32505;SDS011;18955;51.224;8.482;2022-07-30T13:48:34;12.32;;;6.90;;
32505;SDS011;18955;51.224;8.482;2022-07-30T13:51:01;16.90;;;7.57;;
32505;SDS011;18955;51.224;8.482;2022-07-30T13:53:28;12.07;;;7.03;;
32505;SDS011;18955;51.224;8.482;2022-07-30T13:55:54;10.98;;;6.55;;
32505;SDS011;18955;51.224;8.482;2022-07-30T13:58:21;10.15;;;5.88;;
32505;SDS011;18955;51.224;8.482;2022-07-30T14:00:47;11.13;;;6.82;;
32505;SDS011;18955;51.224;8.482;2022-07-30T14:03:13;10.00;;;4.55;;
32505;SDS011;18955;51.224;8.482;2022-07-30T14:05:40;15.68;;;6.40;;
32505;SDS011;18955;51.224;8.482;2022-07-30T14:08:06;11.65;;;6.60;;
32505;SDS011;18955;51.224;8.482;2022-07-30T14:10:34;10.18;;;6.35;;
32505;SDS011;18955;51.224;8.482;2022-07-30T14:13:02;11.43;;;6.25;;
32505;SDS011;18955;51.224;8.482;2022-07-30T14:15:30;12.75;;;6.45;;
32505;SDS011;18955;51.224;8.482;2022-07-30T14:20:23;13.45;;;6.20;;
32505;SDS011;18955;51.224;8.482;2022-07-30T14:25:17;12.40;;;7.07;;
32505;SDS011;18955;51.224;8.482;2022-07-30T14:27:43;12.15;;;6.63;;
32505;SDS011;18955;51.224;8.482;2022-07-30T14:30:10;12.70;;;7.68;;
32505;SDS011;18955;51.224;8.482;2022-07-30T14:32:37;18.35;;;7.32;;
32505;SDS011;18955;51.224;8.482;2022-07-30T14:35:05;12.27;;;7.32;;
32505;SDS011;18955;51.224;8.482;2022-07-30T14:37:34;13.40;;;7.57;;
32505;SDS011;18955;51.224;8.482;2022-07-30T14:40:04;15.95;;;7.75;;
32505;SDS011;18955;51.224;8.482;2022-07-30T14:42:32;10.80;;;6.97;;
32505;SDS011;18955;51.224;8.482;2022-07-30T14:44:58;13.27;;;7.20;;
32505;SDS011;18955;51.224;8.482;2022-07-30T14:47:24;12.70;;;6.38;;
32505;SDS011;18955;51.224;8.482;2022-07-30T14:49:50;20.83;;;8.73;;
32505;SDS011;18955;51.224;8.482;2022-07-30T14:52:17;18.27;;;9.93;;
32505;SDS011;18955;51.224;8.482;2022-07-30T14:54:43;17.50;;;8.25;;
32505;SDS011;18955;51.224;8.482;2022-07-30T14:57:10;15.32;;;8.68;;
32505;SDS011;18955;51.224;8.482;2022-07-30T14:59:36;16.83;;;8.40;;
32505;SDS011;18955;51.224;8.482;2022-07-30T15:02:02;20.45;;;8.82;;
32505;SDS011;18955;51.224;8.482;2022-07-30T15:04:28;19.15;;;9.38;;
32505;SDS011;18955;51.224;8.482;2022-07-30T15:06:55;18.40;;;9.15;;
32505;SDS011;18955;51.224;8.482;2022-07-30T15:09:21;22.35;;;10.40;;
32505;SDS011;18955;51.224;8.482;2022-07-30T15:11:48;18.73;;;9.30;;
32505;SDS011;18955;51.224;8.482;2022-07-30T15:14:14;18.58;;;8.68;;
32505;SDS011;18955;51.224;8.482;2022-07-30T15:16:40;18.40;;;8.88;;
32505;SDS011;18955;51.224;8.482;2022-07-30T15:19:07;14.23;;;8.93;;
32505;SDS011;18955;51.224;8.482;2022-07-30T15:21:33;15.63;;;8.38;;
32505;SDS011;18955;51.224;8.482;2022-07-30T15:23:59;16.40;;;8.18;;
32505;SDS011;18955;51.224;8.482;2022-07-30T15:26:26;13.95;;;8.25;;
32505;SDS011;18955;51.224;8.482;2022-07-30T15:28:53;18.35;;;8.00;;
32505;SDS011;18955;51.224;8.482;2022-07-30T15:31:19;10.25;;;6.07;;
32505;SDS011;18955;51.224;8.482;2022-07-30T15:33:45;14.25;;;8.40;;
32505;SDS011;18955;51.224;8.482;2022-07-30T15:36:13;15.88;;;7.35;;
32505;SDS011;18955;51.224;8.482;2022-07-30T15:38:40;14.18;;;7.60;;
32505;SDS011;18955;51.224;8.482;2022-07-30T15:41:06;12.77;;;7.38;;
32505;SDS011;18955;51.224;8.482;2022-07-30T15:43:32;14.23;;;7.65;;
32505;SDS011;18955;51.224;8.482;2022-07-30T15:45:59;13.05;;;7.07;;
32505;SDS011;18955;51.224;8.482;2022-07-30T15:48:25;14.95;;;8.02;;
32505;SDS011;18955;51.224;8.482;2022-07-30T15:50:52;15.13;;;6.53;;
32505;SDS011;18955;51.224;8.482;2022-07-30T15:53:29;11.80;;;7.03;;
32505;SDS011;18955;51.224;8.482;2022-07-30T15:55:57;11.95;;;7.38;;
32505;SDS011;18955;51.224;8.482;2022-07-30T15:58:24;10.90;;;7.28;;
32505;SDS011;18955;51.224;8.482;2022-07-30T16:00:50;9.93;;;6.57;;
32505;SDS011;18955;51.224;8.482;2022-07-30T16:03:16;11.48;;;6.55;;
32505;SDS011;18955;51.224;8.482;2022-07-30T16:05:42;14.05;;;6.60;;
32505;SDS011;18955;51.224;8.482;2022-07-30T16:08:09;11.13;;;6.03;;
32505;SDS011;18955;51.224;8.482;2022-07-30T16:10:36;10.63;;;5.63;;
32505;SDS011;18955;51.224;8.482;2022-07-30T16:13:03;10.68;;;5.70;;
32505;SDS011;18955;51.224;8.482;2022-07-30T16:15:29;9.05;;;5.10;;
32505;SDS011;18955;51.224;8.482;2022-07-30T16:17:56;12.55;;;4.97;;
32505;SDS011;18955;51.224;8.482;2022-07-30T16:20:22;10.23;;;4.53;;
32505;SDS011;18955;51.224;8.482;2022-07-30T16:22:49;10.02;;;4.47;;
32505;SDS011;18955;51.224;8.482;2022-07-30T16:25:15;7.00;;;4.82;;
32505;SDS011;18955;51.224;8.482;2022-07-30T16:27:41;7.88;;;4.05;;
32505;SDS011;18955;51.224;8.482;2022-07-30T16:30:07;11.43;;;4.15;;